sensor_id;sensor_type;location;lat;lon;timestamp;P1;durP1;ratioP1;P2;durP2;ratioP2
9809;SDS011;4944;52.514;13.192;2022-07-23T00:00:08;7.50;;;5.17;;
9809;SDS011;4944;52.514;13.192;2022-07-23T00:02:37;5.97;;;5.47;;
9809;SDS011;4944;52.514;13.192;2022-07-23T00:05:04;4.90;;;4.60;;
9809;SDS011;4944;52.514;13.192;2022-07-23T00:07:32;8.60;;;5.63;;
9809;SDS011;4944;52.514;13.192;2022-07-23T00:09:59;5.53;;;5.03;;
9809;SDS011;4944;52.514;13.192;2022-07-23T00:12:26;5.95;;;5.13;;
9809;SDS011;4944;52.514;13.192;2022-07-23T00:14:52;5.05;;;4.68;;
9809;SDS011;4944;52.514;13.192;2022-07-23T00:17:19;5.00;;;4.60;;
9809;SDS011;4944;52.514;13.192;2022-07-23T00:19:47;5.07;;;4.67;;
9809;SDS011;4944;52.514;13.192;2022-07-23T00:22:14;6.63;;;4.65;;
9809;SDS011;4944;52.514;13.192;2022-07-23T00:24:41;4.97;;;4.63;;
9809;SDS011;4944;52.514;13.192;2022-07-23T00:27:08;6.05;;;4.68;;
9809;SDS011;4944;52.514;13.192;2022-07-23T00:29:34;5.53;;;5.03;;
9809;SDS011;4944;52.514;13.192;2022-07-23T00:32:01;5.63;;;5.23;;
9809;SDS011;4944;52.514;13.192;2022-07-23T00:34:28;5.63;;;4.87;;
9809;SDS011;4944;52.514;13.192;2022-07-23T00:36:56;5.60;;;4.97;;
9809;SDS011;4944;52.514;13.192;2022-07-23T00:39:23;5.03;;;4.63;;
9809;SDS011;4944;52.514;13.192;2022-07-23T00:41:50;5.20;;;4.70;;
9809;SDS011;4944;52.514;13.192;2022-07-23T00:44:18;4.60;;;4.30;;
9809;SDS011;4944;52.514;13.192;2022-07-23T00:46:46;5.03;;;4.60;;
9809;SDS011;4944;52.514;13.192;2022-07-23T00:49:17;6.93;;;4.90;;
9809;SDS011;4944;52.514;13.192;2022-07-23T00:51:44;5.73;;;5.00;;
9809;SDS011;4944;52.514;13.192;2022-07-23T00:54:13;4.83;;;4.43;;
9809;SDS011;4944;52.514;13.192;2022-07-23T00:56:40;4.70;;;4.40;;
9809;SDS011;4944;52.514;13.192;2022-07-23T00:59:08;5.20;;;4.80;;
9809;SDS011;4944;52.514;13.192;2022-07-23T01:01:35;6.50;;;4.77;;
9809;SDS011;4944;52.514;13.192;2022-07-23T01:04:02;6.20;;;5.10;;
9809;SDS011;4944;52.514;13.192;2022-07-23T01:06:29;4.77;;;4.40;;
9809;SDS011;4944;52.514;13.192;2022-07-23T01:08:59;5.73;;;5.13;;
9809;SDS011;4944;52.514;13.192;2022-07-23T01:11:27;5.80;;;5.20;;
9809;SDS011;4944;52.514;13.192;2022-07-23T01:13:54;5.23;;;4.80;;
9809;SDS011;4944;52.514;13.192;2022-07-23T01:16:21;5.43;;;5.03;;
9809;SDS011;4944;52.514;13.192;2022-07-23T01:18:48;5.30;;;4.80;;
9809;SDS011;4944;52.514;13.192;2022-07-23T01:21:14;5.20;;;4.77;;
9809;SDS011;4944;52.514;13.192;2022-07-23T01:23:45;5.87;;;5.30;;
9809;SDS011;4944;52.514;13.192;2022-07-23T01:26:12;6.07;;;5.23;;
9809;SDS011;4944;52.514;13.192;2022-07-23T01:28:42;6.17;;;4.87;;
9809;SDS011;4944;52.514;13.192;2022-07-23T01:31:09;6.23;;;4.80;;
9809;SDS011;4944;52.514;13.192;2022-07-23T01:33:35;5.30;;;4.80;;
9809;SDS011;4944;52.514;13.192;2022-07-23T01:36:05;5.23;;;4.73;;
9809;SDS011;4944;52.514;13.192;2022-07-23T01:38:33;4.90;;;4.50;;
9809;SDS011;4944;52.514;13.192;2022-07-23T01:41:01;5.10;;;4.70;;
9809;SDS011;4944;52.514;13.192;2022-07-23T01:43:30;5.60;;;5.10;;
9809;SDS011;4944;52.514;13.192;2022-07-23T01:45:57;5.90;;;5.40;;
9809;SDS011;4944;52.514;13.192;2022-07-23T01:48:24;7.00;;;5.70;;
9809;SDS011;4944;52.514;13.192;2022-07-23T01:50:51;5.80;;;5.30;;
9809;SDS011;4944;52.514;13.192;2022-07-23T01:53:17;5.57;;;4.83;;
9809;SDS011;4944;52.514;13.192;2022-07-23T01:55:44;6.33;;;5.17;;
9809;SDS011;4944;52.514;13.192;2022-07-23T01:58:13;5.40;;;4.90;;
9809;SDS011;4944;52.514;13.192;2022-07-23T02:00:39;6.37;;;5.63;;
9809;SDS011;4944;52.514;13.192;2022-07-23T02:03:06;6.83;;;5.33;;
9809;SDS011;4944;52.514;13.192;2022-07-23T02:05:33;5.50;;;5.00;;
9809;SDS011;4944;52.514;13.192;2022-07-23T02:08:00;7.40;;;5.07;;
9809;SDS011;4944;52.514;13.192;2022-07-23T02:10:27;9.83;;;5.03;;
9809;SDS011;4944;52.514;13.192;2022-07-23T02:12:54;6.93;;;5.20;;
9809;SDS011;4944;52.514;13.192;2022-07-23T02:15:22;5.50;;;5.00;;
9809;SDS011;4944;52.514;13.192;2022-07-23T02:17:49;5.83;;;5.23;;
9809;SDS011;4944;52.514;13.192;2022-07-23T02:20:16;5.93;;;5.43;;
9809;SDS011;4944;52.514;13.192;2022-07-23T02:22:43;6.07;;;5.40;;
9809;SDS011;4944;52.514;13.192;2022-07-23T02:25:10;6.33;;;5.17;;
9809;SDS011;4944;52.514;13.192;2022-07-23T02:27:37;5.80;;;5.30;;
9809;SDS011;4944;52.514;13.192;2022-07-23T02:30:04;6.07;;;5.17;;
9809;SDS011;4944;52.514;13.192;2022-07-23T02:32:33;5.40;;;4.80;;
9809;SDS011;4944;52.514;13.192;2022-07-23T02:35:00;4.87;;;4.40;;
9809;SDS011;4944;52.514;13.192;2022-07-23T02:37:28;5.37;;;4.97;;
9809;SDS011;4944;52.514;13.192;2022-07-23T02:39:55;5.40;;;4.57;;
9809;SDS011;4944;52.514;13.192;2022-07-23T02:42:22;6.70;;;4.80;;
9809;SDS011;4944;52.514;13.192;2022-07-23T02:44:49;7.33;;;4.50;;
9809;SDS011;4944;52.514;13.192;2022-07-23T02:47:15;4.90;;;4.50;;
9809;SDS011;4944;52.514;13.192;2022-07-23T02:49:44;5.03;;;4.50;;
9809;SDS011;4944;52.514;13.192;2022-07-23T02:52:11;6.33;;;4.60;;
9809;SDS011;4944;52.514;13.192;2022-07-23T02:54:37;4.50;;;3.50;;
9809;SDS011;4944;52.514;13.192;2022-07-23T02:57:04;4.70;;;3.93;;
9809;SDS011;4944;52.514;13.192;2022-07-23T02:59:31;4.37;;;4.07;;
9809;SDS011;4944;52.514;13.192;2022-07-23T03:01:58;4.93;;;4.00;;
9809;SDS011;4944;52.514;13.192;2022-07-23T03:04:25;5.83;;;4.00;;
9809;SDS011;4944;52.514;13.192;2022-07-23T03:06:54;4.60;;;4.20;;
9809;SDS011;4944;52.514;13.192;2022-07-23T03:09:20;5.10;;;4.40;;
9809;SDS011;4944;52.514;13.192;2022-07-23T03:11:47;3.93;;;3.63;;
9809;SDS011;4944;52.514;13.192;2022-07-23T03:14:14;5.83;;;4.07;;
9809;SDS011;4944;52.514;13.192;2022-07-23T03:16:41;4.70;;;4.20;;
9809;SDS011;4944;52.514;13.192;2022-07-23T03:19:08;4.67;;;4.20;;
9809;SDS011;4944;52.514;13.192;2022-07-23T03:21:35;5.20;;;4.70;;
9809;SDS011;4944;52.514;13.192;2022-07-23T03:24:06;5.43;;;4.23;;
9809;SDS011;4944;52.514;13.192;2022-07-23T03:26:33;7.80;;;4.43;;
9809;SDS011;4944;52.514;13.192;2022-07-23T03:29:00;4.90;;;4.13;;
9809;SDS011;4944;52.514;13.192;2022-07-23T03:31:28;4.47;;;3.83;;
9809;SDS011;4944;52.514;13.192;2022-07-23T03:33:56;10.57;;;3.70;;
9809;SDS011;4944;52.514;13.192;2022-07-23T03:36:22;14.53;;;4.40;;
9809;SDS011;4944;52.514;13.192;2022-07-23T03:38:49;3.60;;;3.30;;
9809;SDS011;4944;52.514;13.192;2022-07-23T03:41:18;4.17;;;3.67;;
9809;SDS011;4944;52.514;13.192;2022-07-23T03:43:45;5.23;;;3.40;;
9809;SDS011;4944;52.514;13.192;2022-07-23T03:46:12;3.53;;;3.33;;
9809;SDS011;4944;52.514;13.192;2022-07-23T03:48:39;6.60;;;3.20;;
9809;SDS011;4944;52.514;13.192;2022-07-23T03:51:05;3.57;;;3.20;;
9809;SDS011;4944;52.514;13.192;2022-07-23T03:53:32;4.93;;;3.40;;
9809;SDS011;4944;52.514;13.192;2022-07-23T03:55:59;4.03;;;2.93;;
9809;SDS011;4944;52.514;13.192;2022-07-23T03:58:27;5.17;;;3.20;;
9809;SDS011;4944;52.514;13.192;2022-07-23T04:00:54;6.27;;;3.30;;
9809;SDS011;4944;52.514;13.192;2022-07-23T04:03:21;6.37;;;3.20;;
9809;SDS011;4944;52.514;13.192;2022-07-23T04:05:48;4.07;;;2.80;;
9809;SDS011;4944;52.514;13.192;2022-07-23T04:08:15;4.23;;;2.93;;
9809;SDS011;4944;52.514;13.192;2022-07-23T04:10:41;5.10;;;2.83;;
9809;SDS011;4944;52.514;13.192;2022-07-23T04:13:09;3.10;;;2.90;;
9809;SDS011;4944;52.514;13.192;2022-07-23T04:15:37;3.30;;;3.00;;
9809;SDS011;4944;52.514;13.192;2022-07-23T04:18:04;3.30;;;2.93;;
9809;SDS011;4944;52.514;13.192;2022-07-23T04:20:30;5.37;;;3.20;;
9809;SDS011;4944;52.514;13.192;2022-07-23T04:22:57;6.00;;;3.10;;
9809;SDS011;4944;52.514;13.192;2022-07-23T04:25:24;3.43;;;2.90;;
9809;SDS011;4944;52.514;13.192;2022-07-23T04:27:51;3.53;;;2.63;;
9809;SDS011;4944;52.514;13.192;2022-07-23T04:30:17;4.23;;;2.63;;
9809;SDS011;4944;52.514;13.192;2022-07-23T04:32:46;5.40;;;2.90;;
9809;SDS011;4944;52.514;13.192;2022-07-23T04:35:12;4.37;;;2.87;;
9809;SDS011;4944;52.514;13.192;2022-07-23T04:37:39;4.20;;;3.10;;
9809;SDS011;4944;52.514;13.192;2022-07-23T04:40:06;2.97;;;2.73;;
9809;SDS011;4944;52.514;13.192;2022-07-23T04:42:34;4.70;;;2.93;;
9809;SDS011;4944;52.514;13.192;2022-07-23T04:45:01;4.57;;;3.10;;
9809;SDS011;4944;52.514;13.192;2022-07-23T04:47:29;6.43;;;3.20;;
9809;SDS011;4944;52.514;13.192;2022-07-23T04:49:58;4.73;;;3.27;;
9809;SDS011;4944;52.514;13.192;2022-07-23T04:52:24;4.53;;;3.07;;
9809;SDS011;4944;52.514;13.192;2022-07-23T04:54:51;4.17;;;2.97;;
9809;SDS011;4944;52.514;13.192;2022-07-23T04:57:18;7.93;;;3.37;;
9809;SDS011;4944;52.514;13.192;2022-07-23T04:59:45;7.07;;;3.73;;
9809;SDS011;4944;52.514;13.192;2022-07-23T05:02:11;5.00;;;3.27;;
9809;SDS011;4944;52.514;13.192;2022-07-23T05:04:38;5.83;;;3.40;;
9809;SDS011;4944;52.514;13.192;2022-07-23T05:07:06;6.43;;;3.60;;
9809;SDS011;4944;52.514;13.192;2022-07-23T05:09:33;6.37;;;3.50;;
9809;SDS011;4944;52.514;13.192;2022-07-23T05:12:00;5.10;;;2.90;;
9809;SDS011;4944;52.514;13.192;2022-07-23T05:14:29;7.20;;;3.13;;
9809;SDS011;4944;52.514;13.192;2022-07-23T05:16:56;5.20;;;2.90;;
9809;SDS011;4944;52.514;13.192;2022-07-23T05:19:23;4.93;;;2.97;;
9809;SDS011;4944;52.514;13.192;2022-07-23T05:21:50;2.77;;;2.40;;
9809;SDS011;4944;52.514;13.192;2022-07-23T05:24:18;3.43;;;2.40;;
9809;SDS011;4944;52.514;13.192;2022-07-23T05:26:45;3.90;;;2.77;;
9809;SDS011;4944;52.514;13.192;2022-07-23T05:29:11;4.67;;;3.07;;
9809;SDS011;4944;52.514;13.192;2022-07-23T05:31:38;4.17;;;2.90;;
9809;SDS011;4944;52.514;13.192;2022-07-23T05:34:05;3.30;;;2.60;;
9809;SDS011;4944;52.514;13.192;2022-07-23T05:36:32;4.70;;;2.73;;
9809;SDS011;4944;52.514;13.192;2022-07-23T05:38:59;5.50;;;2.70;;
9809;SDS011;4944;52.514;13.192;2022-07-23T05:41:27;3.53;;;2.23;;
9809;SDS011;4944;52.514;13.192;2022-07-23T05:43:53;7.10;;;2.80;;
9809;SDS011;4944;52.514;13.192;2022-07-23T05:46:21;4.53;;;2.40;;
9809;SDS011;4944;52.514;13.192;2022-07-23T05:48:47;4.73;;;2.60;;
9809;SDS011;4944;52.514;13.192;2022-07-23T05:51:18;3.87;;;2.80;;
9809;SDS011;4944;52.514;13.192;2022-07-23T05:53:46;3.90;;;2.77;;
9809;SDS011;4944;52.514;13.192;2022-07-23T05:56:12;3.40;;;2.67;;
9809;SDS011;4944;52.514;13.192;2022-07-23T05:58:41;3.37;;;2.60;;
9809;SDS011;4944;52.514;13.192;2022-07-23T06:01:08;3.57;;;2.60;;
9809;SDS011;4944;52.514;13.192;2022-07-23T06:03:36;3.93;;;2.77;;
9809;SDS011;4944;52.514;13.192;2022-07-23T06:06:06;3.50;;;2.70;;
9809;SDS011;4944;52.514;13.192;2022-07-23T06:08:33;5.77;;;2.50;;
9809;SDS011;4944;52.514;13.192;2022-07-23T06:11:00;3.33;;;2.47;;
9809;SDS011;4944;52.514;13.192;2022-07-23T06:13:27;5.83;;;2.90;;
9809;SDS011;4944;52.514;13.192;2022-07-23T06:15:55;5.00;;;2.80;;
9809;SDS011;4944;52.514;13.192;2022-07-23T06:18:22;4.23;;;2.57;;
9809;SDS011;4944;52.514;13.192;2022-07-23T06:20:49;5.33;;;3.03;;
9809;SDS011;4944;52.514;13.192;2022-07-23T06:23:16;3.87;;;2.47;;
9809;SDS011;4944;52.514;13.192;2022-07-23T06:25:43;3.33;;;2.70;;
9809;SDS011;4944;52.514;13.192;2022-07-23T06:28:09;2.87;;;2.57;;
9809;SDS011;4944;52.514;13.192;2022-07-23T06:30:36;3.17;;;2.60;;
9809;SDS011;4944;52.514;13.192;2022-07-23T06:33:04;5.30;;;2.87;;
9809;SDS011;4944;52.514;13.192;2022-07-23T06:35:31;3.97;;;2.80;;
9809;SDS011;4944;52.514;13.192;2022-07-23T06:37:58;2.70;;;2.50;;
9809;SDS011;4944;52.514;13.192;2022-07-23T06:40:26;3.20;;;2.40;;
9809;SDS011;4944;52.514;13.192;2022-07-23T06:42:56;6.30;;;2.60;;
9809;SDS011;4944;52.514;13.192;2022-07-23T06:45:22;4.47;;;3.23;;
9809;SDS011;4944;52.514;13.192;2022-07-23T06:47:49;4.50;;;2.90;;
9809;SDS011;4944;52.514;13.192;2022-07-23T06:50:17;3.93;;;2.83;;
9809;SDS011;4944;52.514;13.192;2022-07-23T06:52:44;5.53;;;2.70;;
9809;SDS011;4944;52.514;13.192;2022-07-23T06:55:11;3.27;;;2.93;;
9809;SDS011;4944;52.514;13.192;2022-07-23T06:57:38;6.07;;;2.80;;
9809;SDS011;4944;52.514;13.192;2022-07-23T07:00:05;3.40;;;3.10;;
9809;SDS011;4944;52.514;13.192;2022-07-23T07:02:33;5.50;;;3.40;;
9809;SDS011;4944;52.514;13.192;2022-07-23T07:04:59;3.47;;;3.17;;
9809;SDS011;4944;52.514;13.192;2022-07-23T07:07:28;5.23;;;2.70;;
9809;SDS011;4944;52.514;13.192;2022-07-23T07:09:55;6.20;;;3.63;;
9809;SDS011;4944;52.514;13.192;2022-07-23T07:12:21;5.17;;;3.53;;
9809;SDS011;4944;52.514;13.192;2022-07-23T07:14:48;4.37;;;3.70;;
9809;SDS011;4944;52.514;13.192;2022-07-23T07:17:15;5.53;;;3.50;;
9809;SDS011;4944;52.514;13.192;2022-07-23T07:19:42;6.83;;;3.17;;
9809;SDS011;4944;52.514;13.192;2022-07-23T07:22:08;3.77;;;3.07;;
9809;SDS011;4944;52.514;13.192;2022-07-23T07:24:37;5.87;;;3.30;;
9809;SDS011;4944;52.514;13.192;2022-07-23T07:27:04;5.83;;;3.37;;
9809;SDS011;4944;52.514;13.192;2022-07-23T07:29:31;4.40;;;3.57;;
9809;SDS011;4944;52.514;13.192;2022-07-23T07:31:58;5.93;;;3.47;;
9809;SDS011;4944;52.514;13.192;2022-07-23T07:34:24;6.10;;;3.07;;
9809;SDS011;4944;52.514;13.192;2022-07-23T07:36:51;4.47;;;3.73;;
9809;SDS011;4944;52.514;13.192;2022-07-23T07:39:18;4.40;;;3.27;;
9809;SDS011;4944;52.514;13.192;2022-07-23T07:41:46;4.97;;;3.63;;
9809;SDS011;4944;52.514;13.192;2022-07-23T07:44:13;3.77;;;3.37;;
9809;SDS011;4944;52.514;13.192;2022-07-23T07:46:40;4.50;;;3.40;;
9809;SDS011;4944;52.514;13.192;2022-07-23T07:49:06;2.83;;;2.60;;
9809;SDS011;4944;52.514;13.192;2022-07-23T07:51:33;3.47;;;3.17;;
9809;SDS011;4944;52.514;13.192;2022-07-23T07:54:00;4.93;;;3.30;;
9809;SDS011;4944;52.514;13.192;2022-07-23T07:56:27;4.50;;;3.27;;
9809;SDS011;4944;52.514;13.192;2022-07-23T07:58:55;5.67;;;3.23;;
9809;SDS011;4944;52.514;13.192;2022-07-23T08:01:23;4.47;;;3.20;;
9809;SDS011;4944;52.514;13.192;2022-07-23T08:03:50;4.43;;;3.67;;
9809;SDS011;4944;52.514;13.192;2022-07-23T08:06:16;7.57;;;3.50;;
9809;SDS011;4944;52.514;13.192;2022-07-23T08:08:43;5.33;;;3.67;;
9809;SDS011;4944;52.514;13.192;2022-07-23T08:11:10;5.03;;;3.70;;
9809;SDS011;4944;52.514;13.192;2022-07-23T08:13:37;5.10;;;3.10;;
9809;SDS011;4944;52.514;13.192;2022-07-23T08:16:08;5.77;;;3.47;;
9809;SDS011;4944;52.514;13.192;2022-07-23T08:18:35;3.27;;;3.00;;
9809;SDS011;4944;52.514;13.192;2022-07-23T08:21:02;3.83;;;3.27;;
9809;SDS011;4944;52.514;13.192;2022-07-23T08:23:31;4.50;;;3.07;;
9809;SDS011;4944;52.514;13.192;2022-07-23T08:25:59;5.30;;;3.17;;
9809;SDS011;4944;52.514;13.192;2022-07-23T08:28:26;4.10;;;2.90;;
9809;SDS011;4944;52.514;13.192;2022-07-23T08:30:53;5.03;;;3.00;;
9809;SDS011;4944;52.514;13.192;2022-07-23T08:33:21;4.27;;;3.17;;
9809;SDS011;4944;52.514;13.192;2022-07-23T08:35:49;4.33;;;3.13;;
9809;SDS011;4944;52.514;13.192;2022-07-23T08:38:19;5.10;;;3.00;;
9809;SDS011;4944;52.514;13.192;2022-07-23T08:40:48;4.70;;;3.13;;
9809;SDS011;4944;52.514;13.192;2022-07-23T08:43:17;4.80;;;2.83;;
9809;SDS011;4944;52.514;13.192;2022-07-23T08:45:46;7.33;;;3.30;;
9809;SDS011;4944;52.514;13.192;2022-07-23T08:48:16;4.40;;;2.80;;
9809;SDS011;4944;52.514;13.192;2022-07-23T08:50:46;3.60;;;2.90;;
9809;SDS011;4944;52.514;13.192;2022-07-23T08:53:14;4.43;;;3.07;;
9809;SDS011;4944;52.514;13.192;2022-07-23T08:55:42;4.67;;;3.00;;
9809;SDS011;4944;52.514;13.192;2022-07-23T08:58:10;4.30;;;2.90;;
9809;SDS011;4944;52.514;13.192;2022-07-23T09:00:37;3.08;;;2.60;;
9809;SDS011;4944;52.514;13.192;2022-07-23T09:03:04;6.00;;;3.00;;
9809;SDS011;4944;52.514;13.192;2022-07-23T09:05:31;4.25;;;2.67;;
9809;SDS011;4944;52.514;13.192;2022-07-23T09:08:10;3.38;;;2.78;;
9809;SDS011;4944;52.514;13.192;2022-07-23T09:10:45;4.70;;;2.47;;
9809;SDS011;4944;52.514;13.192;2022-07-23T09:13:23;6.37;;;2.80;;
9809;SDS011;4944;52.514;13.192;2022-07-23T09:15:56;2.77;;;2.57;;
9809;SDS011;4944;52.514;13.192;2022-07-23T09:18:30;2.90;;;2.70;;
9809;SDS011;4944;52.514;13.192;2022-07-23T09:21:06;4.57;;;3.50;;
9809;SDS011;4944;52.514;13.192;2022-07-23T09:23:49;5.37;;;3.00;;
9809;SDS011;4944;52.514;13.192;2022-07-23T09:26:31;5.35;;;3.17;;
9809;SDS011;4944;52.514;13.192;2022-07-23T09:29:00;4.70;;;2.67;;
9809;SDS011;4944;52.514;13.192;2022-07-23T09:31:33;3.60;;;2.80;;
9809;SDS011;4944;52.514;13.192;2022-07-23T09:34:13;5.40;;;3.20;;
9809;SDS011;4944;52.514;13.192;2022-07-23T09:36:42;4.63;;;3.50;;
9809;SDS011;4944;52.514;13.192;2022-07-23T09:39:11;4.50;;;3.60;;
9809;SDS011;4944;52.514;13.192;2022-07-23T09:41:39;7.30;;;3.43;;
9809;SDS011;4944;52.514;13.192;2022-07-23T09:44:10;4.27;;;3.30;;
9809;SDS011;4944;52.514;13.192;2022-07-23T09:46:38;4.33;;;2.77;;
9809;SDS011;4944;52.514;13.192;2022-07-23T09:49:11;3.80;;;3.10;;
9809;SDS011;4944;52.514;13.192;2022-07-23T09:51:43;3.85;;;2.95;;
9809;SDS011;4944;52.514;13.192;2022-07-23T09:54:21;4.70;;;2.95;;
9809;SDS011;4944;52.514;13.192;2022-07-23T09:56:51;4.15;;;3.25;;
9809;SDS011;4944;52.514;13.192;2022-07-23T09:59:18;3.97;;;3.30;;
9809;SDS011;4944;52.514;13.192;2022-07-23T10:01:49;4.70;;;3.25;;
9809;SDS011;4944;52.514;13.192;2022-07-23T10:04:17;3.40;;;3.10;;
9809;SDS011;4944;52.514;13.192;2022-07-23T10:06:45;3.63;;;3.30;;
9809;SDS011;4944;52.514;13.192;2022-07-23T10:09:13;4.03;;;3.60;;
9809;SDS011;4944;52.514;13.192;2022-07-23T10:11:48;4.63;;;3.40;;
9809;SDS011;4944;52.514;13.192;2022-07-23T10:14:16;3.50;;;3.20;;
9809;SDS011;4944;52.514;13.192;2022-07-23T10:16:44;5.67;;;3.37;;
9809;SDS011;4944;52.514;13.192;2022-07-23T10:19:11;3.50;;;3.20;;
9809;SDS011;4944;52.514;13.192;2022-07-23T10:21:41;8.43;;;3.40;;
9809;SDS011;4944;52.514;13.192;2022-07-23T10:24:16;4.23;;;3.40;;
9809;SDS011;4944;52.514;13.192;2022-07-23T10:26:54;5.30;;;3.23;;
9809;SDS011;4944;52.514;13.192;2022-07-23T10:29:33;3.78;;;3.40;;
9809;SDS011;4944;52.514;13.192;2022-07-23T10:32:14;3.40;;;2.80;;
9809;SDS011;4944;52.514;13.192;2022-07-23T10:34:48;4.45;;;2.90;;
9809;SDS011;4944;52.514;13.192;2022-07-23T10:37:21;4.18;;;2.88;;
9809;SDS011;4944;52.514;13.192;2022-07-23T10:40:10;4.32;;;2.92;;
9809;SDS011;4944;52.514;13.192;2022-07-23T10:42:43;3.63;;;3.20;;
9809;SDS011;4944;52.514;13.192;2022-07-23T10:47:55;3.67;;;2.78;;
9809;SDS011;4944;52.514;13.192;2022-07-23T10:50:37;6.00;;;3.35;;
9809;SDS011;4944;52.514;13.192;2022-07-23T10:53:09;4.32;;;2.85;;
9809;SDS011;4944;52.514;13.192;2022-07-23T10:55:46;5.00;;;3.13;;
9809;SDS011;4944;52.514;13.192;2022-07-23T10:58:19;5.40;;;3.20;;
9809;SDS011;4944;52.514;13.192;2022-07-23T11:00:48;4.15;;;3.15;;
9809;SDS011;4944;52.514;13.192;2022-07-23T11:06:06;3.40;;;3.13;;
9809;SDS011;4944;52.514;13.192;2022-07-23T11:08:33;4.28;;;3.30;;
9809;SDS011;4944;52.514;13.192;2022-07-23T11:11:10;3.97;;;3.13;;
9809;SDS011;4944;52.514;13.192;2022-07-23T11:13:40;5.55;;;3.28;;
9809;SDS011;4944;52.514;13.192;2022-07-23T11:16:16;5.47;;;3.58;;
9809;SDS011;4944;52.514;13.192;2022-07-23T11:18:59;7.35;;;2.83;;
9809;SDS011;4944;52.514;13.192;2022-07-23T11:21:43;3.33;;;2.78;;
9809;SDS011;4944;52.514;13.192;2022-07-23T11:24:20;2.88;;;2.60;;
9809;SDS011;4944;52.514;13.192;2022-07-23T11:26:58;4.35;;;2.97;;
9809;SDS011;4944;52.514;13.192;2022-07-23T11:29:42;5.45;;;2.92;;
9809;SDS011;4944;52.514;13.192;2022-07-23T11:34:58;5.53;;;2.78;;
9809;SDS011;4944;52.514;13.192;2022-07-23T11:37:27;4.82;;;2.88;;
9809;SDS011;4944;52.514;13.192;2022-07-23T11:39:58;4.43;;;2.80;;
9809;SDS011;4944;52.514;13.192;2022-07-23T11:42:25;5.07;;;3.20;;
9809;SDS011;4944;52.514;13.192;2022-07-23T11:44:53;3.85;;;2.90;;
9809;SDS011;4944;52.514;13.192;2022-07-23T11:47:22;5.40;;;2.63;;
9809;SDS011;4944;52.514;13.192;2022-07-23T11:49:53;3.08;;;2.85;;
9809;SDS011;4944;52.514;13.192;2022-07-23T11:52:21;6.60;;;3.03;;
9809;SDS011;4944;52.514;13.192;2022-07-23T11:54:49;3.05;;;2.50;;
9809;SDS011;4944;52.514;13.192;2022-07-23T11:57:18;3.17;;;2.95;;
9809;SDS011;4944;52.514;13.192;2022-07-23T11:59:46;3.10;;;2.80;;
9809;SDS011;4944;52.514;13.192;2022-07-23T12:02:19;3.33;;;2.92;;
9809;SDS011;4944;52.514;13.192;2022-07-23T12:04:47;3.85;;;2.65;;
9809;SDS011;4944;52.514;13.192;2022-07-23T12:07:25;5.05;;;2.92;;
9809;SDS011;4944;52.514;13.192;2022-07-23T12:09:53;4.10;;;2.80;;
9809;SDS011;4944;52.514;13.192;2022-07-23T12:12:20;6.28;;;3.45;;
9809;SDS011;4944;52.514;13.192;2022-07-23T12:14:48;3.53;;;2.80;;
9809;SDS011;4944;52.514;13.192;2022-07-23T12:17:17;3.17;;;2.80;;
9809;SDS011;4944;52.514;13.192;2022-07-23T12:19:45;2.50;;;2.30;;
9809;SDS011;4944;52.514;13.192;2022-07-23T12:22:12;4.47;;;2.90;;
9809;SDS011;4944;52.514;13.192;2022-07-23T12:24:53;4.13;;;2.97;;
9809;SDS011;4944;52.514;13.192;2022-07-23T12:27:21;5.38;;;3.00;;
9809;SDS011;4944;52.514;13.192;2022-07-23T12:29:48;5.30;;;3.58;;
9809;SDS011;4944;52.514;13.192;2022-07-23T12:32:18;3.40;;;3.10;;
9809;SDS011;4944;52.514;13.192;2022-07-23T12:34:47;3.08;;;2.88;;
9809;SDS011;4944;52.514;13.192;2022-07-23T12:37:26;3.22;;;2.63;;
9809;SDS011;4944;52.514;13.192;2022-07-23T12:39:56;6.00;;;3.67;;
9809;SDS011;4944;52.514;13.192;2022-07-23T12:42:24;3.38;;;2.95;;
9809;SDS011;4944;52.514;13.192;2022-07-23T12:45:04;3.83;;;3.33;;
9809;SDS011;4944;52.514;13.192;2022-07-23T12:50:31;3.30;;;3.00;;
9809;SDS011;4944;52.514;13.192;2022-07-23T12:53:03;3.97;;;3.55;;
9809;SDS011;4944;52.514;13.192;2022-07-23T12:55:31;3.42;;;2.75;;
9809;SDS011;4944;52.514;13.192;2022-07-23T12:58:02;2.88;;;2.67;;
9809;SDS011;4944;52.514;13.192;2022-07-23T13:00:48;4.22;;;2.90;;
9809;SDS011;4944;52.514;13.192;2022-07-23T13:03:25;3.22;;;2.67;;
9809;SDS011;4944;52.514;13.192;2022-07-23T13:05:54;3.92;;;2.92;;
9809;SDS011;4944;52.514;13.192;2022-07-23T13:08:22;4.80;;;3.10;;
9809;SDS011;4944;52.514;13.192;2022-07-23T13:10:49;3.97;;;2.83;;
9809;SDS011;4944;52.514;13.192;2022-07-23T13:13:19;5.38;;;3.08;;
9809;SDS011;4944;52.514;13.192;2022-07-23T13:15:47;2.95;;;2.60;;
9809;SDS011;4944;52.514;13.192;2022-07-23T13:18:14;3.22;;;2.88;;
9809;SDS011;4944;52.514;13.192;2022-07-23T13:20:43;4.05;;;3.03;;
9809;SDS011;4944;52.514;13.192;2022-07-23T13:23:10;3.65;;;3.22;;
9809;SDS011;4944;52.514;13.192;2022-07-23T13:25:38;3.47;;;2.42;;
9809;SDS011;4944;52.514;13.192;2022-07-23T13:28:04;4.85;;;2.70;;
9809;SDS011;4944;52.514;13.192;2022-07-23T13:30:32;6.28;;;2.72;;
9809;SDS011;4944;52.514;13.192;2022-07-23T13:32:59;2.58;;;2.22;;
9809;SDS011;4944;52.514;13.192;2022-07-23T13:35:26;4.18;;;2.40;;
9809;SDS011;4944;52.514;13.192;2022-07-23T13:37:55;3.97;;;2.70;;
9809;SDS011;4944;52.514;13.192;2022-07-23T13:40:21;3.35;;;2.40;;
9809;SDS011;4944;52.514;13.192;2022-07-23T13:42:48;2.55;;;2.35;;
9809;SDS011;4944;52.514;13.192;2022-07-23T13:45:16;2.45;;;2.22;;
9809;SDS011;4944;52.514;13.192;2022-07-23T13:47:43;3.10;;;2.05;;
9809;SDS011;4944;52.514;13.192;2022-07-23T13:50:10;5.00;;;2.28;;
9809;SDS011;4944;52.514;13.192;2022-07-23T13:52:38;3.65;;;2.22;;
9809;SDS011;4944;52.514;13.192;2022-07-23T13:55:06;3.97;;;2.30;;
9809;SDS011;4944;52.514;13.192;2022-07-23T13:57:33;3.40;;;2.38;;
9809;SDS011;4944;52.514;13.192;2022-07-23T14:00:00;6.25;;;2.05;;
9809;SDS011;4944;52.514;13.192;2022-07-23T14:02:29;2.30;;;2.10;;
9809;SDS011;4944;52.514;13.192;2022-07-23T14:04:55;2.63;;;2.17;;
9809;SDS011;4944;52.514;13.192;2022-07-23T14:07:23;2.30;;;2.10;;
9809;SDS011;4944;52.514;13.192;2022-07-23T14:09:49;3.30;;;3.05;;
9809;SDS011;4944;52.514;13.192;2022-07-23T14:12:18;11.75;;;10.73;;
9809;SDS011;4944;52.514;13.192;2022-07-23T14:14:45;3.78;;;2.20;;
9809;SDS011;4944;52.514;13.192;2022-07-23T14:17:11;3.83;;;2.35;;
9809;SDS011;4944;52.514;13.192;2022-07-23T14:19:39;2.33;;;2.05;;
9809;SDS011;4944;52.514;13.192;2022-07-23T14:22:05;1.90;;;1.80;;
9809;SDS011;4944;52.514;13.192;2022-07-23T14:24:33;4.75;;;1.90;;
9809;SDS011;4944;52.514;13.192;2022-07-23T14:27:00;1.80;;;1.70;;
9809;SDS011;4944;52.514;13.192;2022-07-23T14:29:31;1.80;;;1.70;;
9809;SDS011;4944;52.514;13.192;2022-07-23T14:31:58;2.20;;;1.95;;
9809;SDS011;4944;52.514;13.192;2022-07-23T14:34:25;3.03;;;2.15;;
9809;SDS011;4944;52.514;13.192;2022-07-23T14:36:52;2.50;;;1.90;;
9809;SDS011;4944;52.514;13.192;2022-07-23T14:39:19;2.45;;;1.85;;
9809;SDS011;4944;52.514;13.192;2022-07-23T14:41:46;1.95;;;1.85;;
9809;SDS011;4944;52.514;13.192;2022-07-23T14:44:13;4.50;;;2.05;;
9809;SDS011;4944;52.514;13.192;2022-07-23T14:46:41;4.18;;;1.70;;
9809;SDS011;4944;52.514;13.192;2022-07-23T14:49:08;3.55;;;2.05;;
9809;SDS011;4944;52.514;13.192;2022-07-23T14:51:35;2.47;;;1.90;;
9809;SDS011;4944;52.514;13.192;2022-07-23T14:54:02;4.35;;;1.70;;
9809;SDS011;4944;52.514;13.192;2022-07-23T14:56:29;2.88;;;1.70;;
9809;SDS011;4944;52.514;13.192;2022-07-23T14:58:56;3.05;;;1.90;;
9809;SDS011;4944;52.514;13.192;2022-07-23T15:01:23;1.48;;;1.35;;
9809;SDS011;4944;52.514;13.192;2022-07-23T15:03:51;1.80;;;1.70;;
9809;SDS011;4944;52.514;13.192;2022-07-23T15:06:18;2.15;;;1.70;;
9809;SDS011;4944;52.514;13.192;2022-07-23T15:08:45;2.15;;;1.80;;
9809;SDS011;4944;52.514;13.192;2022-07-23T15:11:11;3.30;;;1.45;;
9809;SDS011;4944;52.514;13.192;2022-07-23T15:13:38;2.88;;;1.60;;
9809;SDS011;4944;52.514;13.192;2022-07-23T15:16:05;1.63;;;1.52;;
9809;SDS011;4944;52.514;13.192;2022-07-23T15:18:33;2.00;;;1.30;;